Aeroporto :
LOGIN :

Iscrizione | Disclaimer

   EN    FR    IT 

 










Sommario :    VFR   VFR Marginale   IFR   IFR Intensivo   IFR Molto Intensivo
Visibilità : 
Base nubi : 
>= 8 km
>= 3000ft
5 / 8 km
1000 / 3000 ft
1500m / 5 km
500 / 1000 ft
800 / 1500m
200 / 500 ft
< 800m
< 200 ft
Simboli :   Temporali  Nebbia  Neve Forte  Precipitazioni Forti  Vento > 20 kt
SIGMETs :   Varie  Temporali  Ghiacco  Turbolenza  Onda orograficha  Ceneri Vulcaniche






- Altitudine del aeroporto : 106 ft
- Codice IATA : NRN


EDLV - Weeze

ULTIMO METAR :
  • 200250Z 30007KT 270V330 9999 -RA FEW014 05/04 Q1017

METARs OBSOLETI :
  • 200220Z AUTO 30007KT 260V330 9999 // FEW011/// BKN013/// OVC062/// 06/04 Q1016
  • 200150Z AUTO 31005KT 270V340 9999 // FEW010/// BKN014/// OVC060/// 06/04 Q1016
  • 200120Z AUTO 30007KT 270V330 9999 // FEW012/// SCT057/// OVC090/// 06/04 Q1016
  • 200050Z AUTO 29007KT 260V330 9999 // FEW019/// BKN056/// OVC092/// 06/04 Q1015
  • 200020Z AUTO 29006KT 260V320 9999 // SCT049/// BKN093/// 05/04 Q1015
  • 192350Z AUTO 29005KT 260V320 9999 // FEW049/// BKN096/// 05/04 Q1015
  • 192320Z AUTO 29005KT 250V320 9999 // SCT093/// BKN120/// 05/04 Q1015
  • 192250Z AUTO 29006KT 260V320 9999 // BKN095/// 05/04 Q1015
  • 192220Z AUTO 30006KT 270V330 9999 // FEW021/// BKN062/// OVC100/// 06/04 Q1014

TAF TAF EDLV
Valido dal 19 a 18 ore il 20 a 18 ore UTC


191700Z 1918/2018 31015G25KT 9999 BKN025
PROB30
TEMPO 1918/1920 31020G30KT 4000 SHRAGS SCT020CB
BECMG 1919/1922 31007KT
PROB30
TEMPO 1920/2002 SHRA BKN012CB
PROB30
TEMPO 2002/2009 SHRA BKN008CB
BECMG 2006/2009 32012KT
TEMPO 2009/2018 4000 SHRAGS BKN014CB
PROB30
TEMPO 2012/2018 32015G30KT 2500 TSGS



MetMap, La meteo Aeronautica in un colpo d'occhio ! - Copyright ORBIFLY Dicembre 2007 - Disclaimer

ORBIFLY MET'MAP TEAM :

Programmazione e sviluppo : Alexandra Zaïnal
Concezione : Baudouin d'Aumeries
Supporto tecnico e logistico : Manuel Goepfert
Aiuto : Marc-Olivier Méhu
Aiuto per la traduzione : Arnaldo La Scala




FONTI E CREDITI :

   NOAA